sensor_id;sensor_type;location;lat;lon;timestamp;pressure;altitude;pressure_sealevel;temperature;humidity
34674;BME280;20879;55.668;37.858;2022-09-01T00:00:28;99106.94;;;11.35;75.25
34674;BME280;20879;55.668;37.858;2022-09-01T00:02:58;99093.91;;;11.38;75.34
34674;BME280;20879;55.668;37.858;2022-09-01T00:05:38;99088.91;;;11.32;75.00
34674;BME280;20879;55.668;37.858;2022-09-01T00:08:08;99094.50;;;11.16;75.36
34674;BME280;20879;55.668;37.858;2022-09-01T00:10:42;99087.13;;;11.01;75.94
34674;BME280;20879;55.668;37.858;2022-09-01T00:13:14;99095.06;;;10.95;76.74
34674;BME280;20879;55.668;37.858;2022-09-01T00:15:43;99085.78;;;10.86;76.46
34674;BME280;20879;55.668;37.858;2022-09-01T00:18:22;99097.56;;;10.98;76.62
34674;BME280;20879;55.668;37.858;2022-09-01T00:20:51;99094.88;;;11.02;76.35
34674;BME280;20879;55.668;37.858;2022-09-01T00:23:25;99105.00;;;11.12;76.06
34674;BME280;20879;55.668;37.858;2022-09-01T00:25:55;99093.13;;;11.03;75.79
34674;BME280;20879;55.668;37.858;2022-09-01T00:28:26;99106.66;;;11.14;75.84
34674;BME280;20879;55.668;37.858;2022-09-01T00:30:56;99106.66;;;11.14;75.84
34674;BME280;20879;55.668;37.858;2022-09-01T00:33:26;99108.28;;;11.17;75.44
34674;BME280;20879;55.668;37.858;2022-09-01T00:35:55;99107.31;;;11.21;75.23
34674;BME280;20879;55.668;37.858;2022-09-01T00:38:25;99109.88;;;11.23;75.16
34674;BME280;20879;55.668;37.858;2022-09-01T00:40:55;99106.47;;;11.21;75.11
34674;BME280;20879;55.668;37.858;2022-09-01T00:43:38;99089.31;;;11.16;75.37
34674;BME280;20879;55.668;37.858;2022-09-01T00:46:14;99103.88;;;11.21;75.44
34674;BME280;20879;55.668;37.858;2022-09-01T00:48:50;99091.03;;;11.17;75.38
34674;BME280;20879;55.668;37.858;2022-09-01T00:51:22;99108.06;;;11.26;74.76
34674;BME280;20879;55.668;37.858;2022-09-01T00:53:52;99096.16;;;11.19;74.91
34674;BME280;20879;55.668;37.858;2022-09-01T00:56:22;99056.50;;;11.15;74.52
34674;BME280;20879;55.668;37.858;2022-09-01T00:58:53;99088.88;;;11.00;75.32
34674;BME280;20879;55.668;37.858;2022-09-01T01:01:23;99099.63;;;10.87;75.79
34674;BME280;20879;55.668;37.858;2022-09-01T01:03:52;99100.84;;;10.73;76.09
34674;BME280;20879;55.668;37.858;2022-09-01T01:06:28;99080.25;;;10.67;76.07
34674;BME280;20879;55.668;37.858;2022-09-01T01:08:59;99106.06;;;10.70;76.76
34674;BME280;20879;55.668;37.858;2022-09-01T01:11:30;99087.81;;;10.76;76.87
34674;BME280;20879;55.668;37.858;2022-09-01T01:14:04;99046.09;;;10.53;76.62
34674;BME280;20879;55.668;37.858;2022-09-01T01:16:37;99094.81;;;10.71;76.79
34674;BME280;20879;55.668;37.858;2022-09-01T01:19:15;99094.16;;;10.64;77.09
34674;BME280;20879;55.668;37.858;2022-09-01T01:22:21;99089.97;;;10.59;77.20
34674;BME280;20879;55.668;37.858;2022-09-01T01:25:18;99102.75;;;10.65;76.69
34674;BME280;20879;55.668;37.858;2022-09-01T01:27:48;99095.88;;;10.64;76.76
34674;BME280;20879;55.668;37.858;2022-09-01T01:30:19;99101.88;;;10.66;76.50
34674;BME280;20879;55.668;37.858;2022-09-01T01:32:50;99099.34;;;10.63;76.80
34674;BME280;20879;55.668;37.858;2022-09-01T01:35:28;99100.13;;;10.66;76.61
34674;BME280;20879;55.668;37.858;2022-09-01T01:37:58;99100.09;;;10.68;76.41
34674;BME280;20879;55.668;37.858;2022-09-01T01:40:29;99094.16;;;10.63;76.33
34674;BME280;20879;55.668;37.858;2022-09-01T01:42:59;99086.66;;;10.52;76.68
34674;BME280;20879;55.668;37.858;2022-09-01T01:45:36;99088.59;;;10.44;76.77
34674;BME280;20879;55.668;37.858;2022-09-01T01:48:05;99082.91;;;10.29;77.37
34674;BME280;20879;55.668;37.858;2022-09-01T01:50:47;99100.31;;;10.21;77.24
34674;BME280;20879;55.668;37.858;2022-09-01T01:53:18;99068.09;;;9.97;77.14
34674;BME280;20879;55.668;37.858;2022-09-01T01:55:49;99081.66;;;10.08;77.33
34674;BME280;20879;55.668;37.858;2022-09-01T01:58:31;99079.03;;;10.10;77.12
34674;BME280;20879;55.668;37.858;2022-09-01T02:01:07;99092.91;;;10.07;76.56
34674;BME280;20879;55.668;37.858;2022-09-01T02:03:39;99090.34;;;10.04;77.17
34674;BME280;20879;55.668;37.858;2022-09-01T02:06:10;99098.25;;;9.98;77.52
34674;BME280;20879;55.668;37.858;2022-09-01T02:08:40;99099.88;;;10.04;77.53
34674;BME280;20879;55.668;37.858;2022-09-01T02:11:12;99094.59;;;10.08;77.19
34674;BME280;20879;55.668;37.858;2022-09-01T02:13:44;99100.56;;;10.12;77.02
34674;BME280;20879;55.668;37.858;2022-09-01T02:16:15;99097.97;;;10.12;76.85
34674;BME280;20879;55.668;37.858;2022-09-01T02:18:46;99081.75;;;10.04;76.97
34674;BME280;20879;55.668;37.858;2022-09-01T02:21:19;99100.75;;;10.03;77.01
34674;BME280;20879;55.668;37.858;2022-09-01T02:23:57;99094.31;;;10.21;76.52
34674;BME280;20879;55.668;37.858;2022-09-01T02:26:35;99099.44;;;10.22;76.24
34674;BME280;20879;55.668;37.858;2022-09-01T02:29:09;99091.66;;;10.24;75.99
34674;BME280;20879;55.668;37.858;2022-09-01T02:31:45;99100.19;;;10.27;76.19
34674;BME280;20879;55.668;37.858;2022-09-01T02:34:15;99102.00;;;10.24;75.92
34674;BME280;20879;55.668;37.858;2022-09-01T02:36:46;99088.06;;;10.29;75.58
34674;BME280;20879;55.668;37.858;2022-09-01T02:39:25;99103.63;;;10.28;75.68
34674;BME280;20879;55.668;37.858;2022-09-01T02:41:57;99103.56;;;10.31;75.88
34674;BME280;20879;55.668;37.858;2022-09-01T02:44:28;99082.84;;;10.31;75.54
34674;BME280;20879;55.668;37.858;2022-09-01T02:46:59;99091.56;;;10.27;75.15
34674;BME280;20879;55.668;37.858;2022-09-01T02:49:32;99109.72;;;10.25;74.78
34674;BME280;20879;55.668;37.858;2022-09-01T02:52:02;99099.56;;;10.16;74.79
34674;BME280;20879;55.668;37.858;2022-09-01T02:54:32;99107.47;;;10.10;74.65
34674;BME280;20879;55.668;37.858;2022-09-01T02:57:14;99120.38;;;10.11;74.94
34674;BME280;20879;55.668;37.858;2022-09-01T02:59:44;99111.06;;;10.04;74.75
34674;BME280;20879;55.668;37.858;2022-09-01T03:02:13;99119.72;;;10.03;75.07
34674;BME280;20879;55.668;37.858;2022-09-01T03:04:43;99101.53;;;10.06;75.26
34674;BME280;20879;55.668;37.858;2022-09-01T03:07:16;99103.09;;;10.13;75.21
34674;BME280;20879;55.668;37.858;2022-09-01T03:09:49;99105.69;;;10.13;74.66
34674;BME280;20879;55.668;37.858;2022-09-01T03:12:21;99094.31;;;10.21;74.76
34674;BME280;20879;55.668;37.858;2022-09-01T03:14:50;99067.03;;;10.06;73.80
34674;BME280;20879;55.668;37.858;2022-09-01T03:17:19;99090.16;;;10.13;73.88
34674;BME280;20879;55.668;37.858;2022-09-01T03:19:48;99115.66;;;10.29;73.97
34674;BME280;20879;55.668;37.858;2022-09-01T03:22:17;99112.94;;;10.35;73.64
34674;BME280;20879;55.668;37.858;2022-09-01T03:24:48;99106.88;;;10.38;73.82
34674;BME280;20879;55.668;37.858;2022-09-01T03:27:17;99102.56;;;10.38;73.19
34674;BME280;20879;55.668;37.858;2022-09-01T03:29:48;99109.25;;;10.47;72.88
34674;BME280;20879;55.668;37.858;2022-09-01T03:32:29;99114.44;;;10.47;72.82
34674;BME280;20879;55.668;37.858;2022-09-01T03:35:05;99105.72;;;10.49;72.40
34674;BME280;20879;55.668;37.858;2022-09-01T03:37:35;99110.94;;;10.48;72.45
34674;BME280;20879;55.668;37.858;2022-09-01T03:40:07;99106.53;;;10.52;72.62
34674;BME280;20879;55.668;37.858;2022-09-01T03:42:37;99109.84;;;10.57;72.39
34674;BME280;20879;55.668;37.858;2022-09-01T03:45:11;99106.38;;;10.58;72.55
34674;BME280;20879;55.668;37.858;2022-09-01T03:47:42;99095.97;;;10.59;72.29
34674;BME280;20879;55.668;37.858;2022-09-01T03:50:19;99117.47;;;10.63;72.38
34674;BME280;20879;55.668;37.858;2022-09-01T03:52:52;99104.59;;;10.60;72.29
34674;BME280;20879;55.668;37.858;2022-09-01T03:55:30;99108.72;;;10.67;72.11
34674;BME280;20879;55.668;37.858;2022-09-01T03:58:02;99107.84;;;10.68;72.10
34674;BME280;20879;55.668;37.858;2022-09-01T04:00:46;99112.16;;;10.69;71.91
34674;BME280;20879;55.668;37.858;2022-09-01T04:03:17;99101.03;;;10.64;72.11
34674;BME280;20879;55.668;37.858;2022-09-01T04:05:55;99104.66;;;10.57;72.40
34674;BME280;20879;55.668;37.858;2022-09-01T04:08:25;99093.75;;;10.45;72.29
34674;BME280;20879;55.668;37.858;2022-09-01T04:11:02;99113.41;;;10.53;72.49
34674;BME280;20879;55.668;37.858;2022-09-01T04:13:36;99104.75;;;10.54;72.32
34674;BME280;20879;55.668;37.858;2022-09-01T04:16:20;99099.28;;;10.66;71.82
34674;BME280;20879;55.668;37.858;2022-09-01T04:19:03;99106.94;;;10.71;70.68
34674;BME280;20879;55.668;37.858;2022-09-01T04:21:42;99087.84;;;10.75;69.68
34674;BME280;20879;55.668;37.858;2022-09-01T04:24:13;99122.31;;;10.77;69.17
34674;BME280;20879;55.668;37.858;2022-09-01T04:26:46;99113.56;;;10.81;68.16
34674;BME280;20879;55.668;37.858;2022-09-01T04:29:17;99096.44;;;10.75;68.12
34674;BME280;20879;55.668;37.858;2022-09-01T04:31:57;99109.41;;;10.75;67.16
34674;BME280;20879;55.668;37.858;2022-09-01T04:34:30;99121.47;;;10.76;67.27
34674;BME280;20879;55.668;37.858;2022-09-01T04:37:07;99117.81;;;10.83;67.31
34674;BME280;20879;55.668;37.858;2022-09-01T04:39:37;99119.44;;;10.88;67.20
34674;BME280;20879;55.668;37.858;2022-09-01T04:42:27;99088.59;;;10.78;64.71
34674;BME280;20879;55.668;37.858;2022-09-01T04:44:58;99115.41;;;11.10;64.71
34674;BME280;20879;55.668;37.858;2022-09-01T04:47:42;99108.31;;;11.15;64.47
34674;BME280;20879;55.668;37.858;2022-09-01T04:50:17;99108.22;;;11.20;64.21
34674;BME280;20879;55.668;37.858;2022-09-01T04:53:06;99095.38;;;11.15;64.30
34674;BME280;20879;55.668;37.858;2022-09-01T04:55:40;99121.06;;;10.92;63.88
34674;BME280;20879;55.668;37.858;2022-09-01T04:58:16;99072.97;;;10.81;63.91
34674;BME280;20879;55.668;37.858;2022-09-01T05:00:51;99094.06;;;10.68;64.43
34674;BME280;20879;55.668;37.858;2022-09-01T05:03:25;99114.75;;;10.69;64.67
34674;BME280;20879;55.668;37.858;2022-09-01T05:06:23;99071.09;;;10.54;64.65
34674;BME280;20879;55.668;37.858;2022-09-01T05:08:59;99097.78;;;10.57;65.10
34674;BME280;20879;55.668;37.858;2022-09-01T05:11:48;99115.84;;;10.59;64.99
34674;BME280;20879;55.668;37.858;2022-09-01T05:14:22;99132.13;;;10.64;64.86
34674;BME280;20879;55.668;37.858;2022-09-01T05:16:56;99126.78;;;10.70;64.44
34674;BME280;20879;55.668;37.858;2022-09-01T05:19:29;99135.41;;;10.71;63.42
34674;BME280;20879;55.668;37.858;2022-09-01T05:21:59;99114.66;;;10.72;62.96
34674;BME280;20879;55.668;37.858;2022-09-01T05:24:40;99131.69;;;10.81;63.21
34674;BME280;20879;55.668;37.858;2022-09-01T05:27:09;99115.78;;;10.95;62.85
34674;BME280;20879;55.668;37.858;2022-09-01T05:29:43;99109.63;;;10.99;62.08
34674;BME280;20879;55.668;37.858;2022-09-01T05:32:12;99096.97;;;10.88;61.33
34674;BME280;20879;55.668;37.858;2022-09-01T05:34:51;99109.84;;;10.91;61.66
34674;BME280;20879;55.668;37.858;2022-09-01T05:37:20;99126.16;;;10.95;61.47
34674;BME280;20879;55.668;37.858;2022-09-01T05:39:50;99122.38;;;11.07;60.71
34674;BME280;20879;55.668;37.858;2022-09-01T05:42:19;99141.69;;;11.28;60.02
34674;BME280;20879;55.668;37.858;2022-09-01T05:44:58;99141.06;;;11.51;59.61
34674;BME280;20879;55.668;37.858;2022-09-01T05:47:29;99143.25;;;11.65;58.90
34674;BME280;20879;55.668;37.858;2022-09-01T05:50:06;99142.44;;;11.93;58.19
34674;BME280;20879;55.668;37.858;2022-09-01T05:52:41;99119.38;;;12.13;57.63
34674;BME280;20879;55.668;37.858;2022-09-01T05:55:11;99121.53;;;11.99;58.07
34674;BME280;20879;55.668;37.858;2022-09-01T05:57:42;99137.72;;;11.77;58.20
34674;BME280;20879;55.668;37.858;2022-09-01T06:00:18;99131.31;;;11.59;58.17
34674;BME280;20879;55.668;37.858;2022-09-01T06:02:48;99141.06;;;11.51;58.46
34674;BME280;20879;55.668;37.858;2022-09-01T06:05:22;99140.09;;;11.53;58.00
34674;BME280;20879;55.668;37.858;2022-09-01T06:07:53;99140.84;;;11.59;57.95
34674;BME280;20879;55.668;37.858;2022-09-01T06:10:23;99135.53;;;11.63;57.21
34674;BME280;20879;55.668;37.858;2022-09-01T06:12:52;99123.09;;;11.75;57.16
34674;BME280;20879;55.668;37.858;2022-09-01T06:15:24;99138.06;;;11.65;57.43
34674;BME280;20879;55.668;37.858;2022-09-01T06:18:00;99135.56;;;11.62;57.47
34674;BME280;20879;55.668;37.858;2022-09-01T06:20:37;99145.84;;;11.65;57.46
34674;BME280;20879;55.668;37.858;2022-09-01T06:23:07;99136.75;;;11.80;57.24
34674;BME280;20879;55.668;37.858;2022-09-01T06:25:44;99116.97;;;11.77;57.09
34674;BME280;20879;55.668;37.858;2022-09-01T06:28:29;99129.84;;;11.80;57.19
34674;BME280;20879;55.668;37.858;2022-09-01T06:30:58;99139.59;;;11.72;57.44
34674;BME280;20879;55.668;37.858;2022-09-01T06:33:29;99154.56;;;11.62;57.13
34674;BME280;20879;55.668;37.858;2022-09-01T06:36:01;99132.25;;;11.57;57.01
34674;BME280;20879;55.668;37.858;2022-09-01T06:38:32;99138.94;;;11.64;56.96
34674;BME280;20879;55.668;37.858;2022-09-01T06:41:03;99152.41;;;11.77;56.44
34674;BME280;20879;55.668;37.858;2022-09-01T06:43:39;99153.09;;;11.83;56.24
34674;BME280;20879;55.668;37.858;2022-09-01T06:46:09;99154.56;;;11.94;56.01
34674;BME280;20879;55.668;37.858;2022-09-01T06:48:39;99146.13;;;12.15;55.47
34674;BME280;20879;55.668;37.858;2022-09-01T06:51:16;99144.41;;;12.43;54.39
34674;BME280;20879;55.668;37.858;2022-09-01T06:53:54;99146.16;;;12.69;54.09
34674;BME280;20879;55.668;37.858;2022-09-01T06:56:33;99139.97;;;12.73;53.11
34674;BME280;20879;55.668;37.858;2022-09-01T06:59:27;99143.25;;;12.78;52.64
34674;BME280;20879;55.668;37.858;2022-09-01T07:02:17;99144.44;;;12.94;52.91
34674;BME280;20879;55.668;37.858;2022-09-01T07:05:19;99153.88;;;13.22;52.46
34674;BME280;20879;55.668;37.858;2022-09-01T07:08:13;99150.97;;;13.32;51.69
34674;BME280;20879;55.668;37.858;2022-09-01T07:11:06;99136.03;;;13.38;50.88
34674;BME280;20879;55.668;37.858;2022-09-01T07:14:06;99149.91;;;13.12;51.54
34674;BME280;20879;55.668;37.858;2022-09-01T07:16:44;99125.94;;;12.79;52.53
34674;BME280;20879;55.668;37.858;2022-09-01T07:19:20;99118.72;;;12.60;52.44
34674;BME280;20879;55.668;37.858;2022-09-01T07:22:09;99155.09;;;12.60;53.34
34674;BME280;20879;55.668;37.858;2022-09-01T07:25:03;99152.09;;;12.46;53.48
34674;BME280;20879;55.668;37.858;2022-09-01T07:27:57;99157.94;;;12.26;54.81
34674;BME280;20879;55.668;37.858;2022-09-01T07:30:27;99159.13;;;12.15;55.69
34674;BME280;20879;55.668;37.858;2022-09-01T07:32:58;99162.00;;;12.04;55.97
34674;BME280;20879;55.668;37.858;2022-09-01T07:35:54;99145.50;;;12.07;56.21
34674;BME280;20879;55.668;37.858;2022-09-01T07:38:44;99148.84;;;12.11;56.22
34674;BME280;20879;55.668;37.858;2022-09-01T07:41:43;99153.06;;;12.15;56.26
34674;BME280;20879;55.668;37.858;2022-09-01T07:44:45;99159.75;;;12.22;56.55
34674;BME280;20879;55.668;37.858;2022-09-01T07:47:42;99145.59;;;12.32;55.99
34674;BME280;20879;55.668;37.858;2022-09-01T07:50:21;99159.81;;;12.47;56.26
34674;BME280;20879;55.668;37.858;2022-09-01T07:53:08;99153.91;;;12.96;55.03
34674;BME280;20879;55.668;37.858;2022-09-01T07:55:39;99147.56;;;13.29;54.39
34674;BME280;20879;55.668;37.858;2022-09-01T07:58:12;99130.91;;;13.35;53.68
34674;BME280;20879;55.668;37.858;2022-09-01T08:00:44;99140.63;;;13.05;54.28
34674;BME280;20879;55.668;37.858;2022-09-01T08:03:18;99144.38;;;12.96;54.46
34674;BME280;20879;55.668;37.858;2022-09-01T08:05:48;99155.66;;;12.70;54.99
34674;BME280;20879;55.668;37.858;2022-09-01T08:08:22;99152.97;;;12.46;55.99
34674;BME280;20879;55.668;37.858;2022-09-01T08:10:56;99136.03;;;12.34;56.56
34674;BME280;20879;55.668;37.858;2022-09-01T08:13:38;99147.94;;;12.40;55.98
34674;BME280;20879;55.668;37.858;2022-09-01T08:16:09;99142.75;;;12.40;56.16
34674;BME280;20879;55.668;37.858;2022-09-01T08:18:46;99150.66;;;12.64;55.21
34674;BME280;20879;55.668;37.858;2022-09-01T08:21:22;99133.03;;;12.99;54.13
34674;BME280;20879;55.668;37.858;2022-09-01T08:23:58;99147.16;;;13.17;53.74
34674;BME280;20879;55.668;37.858;2022-09-01T08:26:29;99147.03;;;13.45;53.38
34674;BME280;20879;55.668;37.858;2022-09-01T08:29:06;99124.88;;;13.58;51.96
34674;BME280;20879;55.668;37.858;2022-09-01T08:31:40;99118.00;;;13.57;51.62
34674;BME280;20879;55.668;37.858;2022-09-01T08:34:10;99140.00;;;13.49;51.30
34674;BME280;20879;55.668;37.858;2022-09-01T08:36:39;99150.22;;;13.53;51.05
34674;BME280;20879;55.668;37.858;2022-09-01T08:39:09;99131.66;;;13.86;50.14
34674;BME280;20879;55.668;37.858;2022-09-01T08:41:46;99137.41;;;13.94;49.71
34674;BME280;20879;55.668;37.858;2022-09-01T08:44:34;99140.53;;;14.04;49.60
34674;BME280;20879;55.668;37.858;2022-09-01T08:47:09;99138.63;;;14.08;49.40
34674;BME280;20879;55.668;37.858;2022-09-01T08:49:42;99142.94;;;13.87;49.17
34674;BME280;20879;55.668;37.858;2022-09-01T08:52:25;99146.66;;;13.56;49.85
34674;BME280;20879;55.668;37.858;2022-09-01T08:55:08;99158.25;;;13.47;50.11
34674;BME280;20879;55.668;37.858;2022-09-01T08:57:44;99160.03;;;13.45;50.54
34674;BME280;20879;55.668;37.858;2022-09-01T09:00:23;99143.13;;;13.57;49.81
34674;BME280;20879;55.668;37.858;2022-09-01T09:03:06;99149.53;;;13.48;49.39
34674;BME280;20879;55.668;37.858;2022-09-01T09:05:58;99153.94;;;13.70;49.29
34674;BME280;20879;55.668;37.858;2022-09-01T09:08:55;99172.94;;;13.48;49.28
34674;BME280;20879;55.668;37.858;2022-09-01T09:11:57;99132.69;;;13.33;49.64
34674;BME280;20879;55.668;37.858;2022-09-01T09:14:42;99163.59;;;13.17;49.90
34674;BME280;20879;55.668;37.858;2022-09-01T09:17:26;99162.38;;;13.02;50.39
34674;BME280;20879;55.668;37.858;2022-09-01T09:19:59;99182.59;;;12.92;50.56
34674;BME280;20879;55.668;37.858;2022-09-01T09:22:30;99163.31;;;13.00;50.22
34674;BME280;20879;55.668;37.858;2022-09-01T09:25:13;99193.59;;;13.01;50.53
34674;BME280;20879;55.668;37.858;2022-09-01T09:27:46;99178.28;;;13.18;50.16
34674;BME280;20879;55.668;37.858;2022-09-01T09:30:28;99197.03;;;13.26;50.15
34674;BME280;20879;55.668;37.858;2022-09-01T09:33:06;99188.13;;;13.35;49.88
34674;BME280;20879;55.668;37.858;2022-09-01T09:36:15;99189.69;;;13.64;49.93
34674;BME280;20879;55.668;37.858;2022-09-01T09:39:08;99189.13;;;13.80;49.06
34674;BME280;20879;55.668;37.858;2022-09-01T09:41:38;99183.81;;;13.59;49.31
34674;BME280;20879;55.668;37.858;2022-09-01T09:44:23;99193.31;;;13.60;48.88
34674;BME280;20879;55.668;37.858;2022-09-01T09:46:55;99182.66;;;13.43;49.13
34674;BME280;20879;55.668;37.858;2022-09-01T09:49:28;99201.13;;;13.35;49.91
34674;BME280;20879;55.668;37.858;2022-09-01T09:52:15;99192.00;;;13.22;50.15
34674;BME280;20879;55.668;37.858;2022-09-01T09:55:02;99212.94;;;12.92;50.99
34674;BME280;20879;55.668;37.858;2022-09-01T09:57:37;99200.13;;;12.87;50.72
34674;BME280;20879;55.668;37.858;2022-09-01T10:00:18;99207.00;;;12.88;50.33
34674;BME280;20879;55.668;37.858;2022-09-01T10:02:53;99196.16;;;12.75;51.13
34674;BME280;20879;55.668;37.858;2022-09-01T10:05:34;99237.22;;;12.64;51.25
34674;BME280;20879;55.668;37.858;2022-09-01T10:08:11;99204.88;;;12.46;51.71
34674;BME280;20879;55.668;37.858;2022-09-01T10:10:48;99225.78;;;12.41;52.16
34674;BME280;20879;55.668;37.858;2022-09-01T10:13:31;99233.94;;;12.57;52.53
34674;BME280;20879;55.668;37.858;2022-09-01T10:16:04;99227.78;;;12.88;51.93
34674;BME280;20879;55.668;37.858;2022-09-01T10:18:39;99228.56;;;13.17;50.89
34674;BME280;20879;55.668;37.858;2022-09-01T10:21:15;99218.94;;;13.21;50.42
34674;BME280;20879;55.668;37.858;2022-09-01T10:23:47;99226.06;;;13.14;50.41
34674;BME280;20879;55.668;37.858;2022-09-01T10:26:20;99215.22;;;13.01;50.32
34674;BME280;20879;55.668;37.858;2022-09-01T10:28:55;99232.19;;;12.86;51.28
34674;BME280;20879;55.668;37.858;2022-09-01T10:31:28;99230.25;;;12.93;50.60
34674;BME280;20879;55.668;37.858;2022-09-01T10:34:01;99241.53;;;12.92;50.60
34674;BME280;20879;55.668;37.858;2022-09-01T10:36:34;99236.06;;;13.00;50.42
34674;BME280;20879;55.668;37.858;2022-09-01T10:39:20;99238.75;;;13.23;50.33
34674;BME280;20879;55.668;37.858;2022-09-01T10:41:57;99223.34;;;13.44;49.55
34674;BME280;20879;55.668;37.858;2022-09-01T10:44:34;99218.25;;;13.41;49.27
34674;BME280;20879;55.668;37.858;2022-09-01T10:47:09;99243.25;;;13.45;49.59
34674;BME280;20879;55.668;37.858;2022-09-01T10:49:56;99235.72;;;13.62;48.98
34674;BME280;20879;55.668;37.858;2022-09-01T10:52:59;99213.44;;;13.55;49.53
34674;BME280;20879;55.668;37.858;2022-09-01T10:55:42;99229.72;;;13.35;50.21
34674;BME280;20879;55.668;37.858;2022-09-01T11:05:15;99241.97;;;13.57;49.06
34674;BME280;20879;55.668;37.858;2022-09-01T11:07:45;99227.94;;;13.86;48.36
34674;BME280;20879;55.668;37.858;2022-09-01T11:10:54;99240.44;;;14.00;47.75
34674;BME280;20879;55.668;37.858;2022-09-01T11:13:35;99244.34;;;13.88;47.71
34674;BME280;20879;55.668;37.858;2022-09-01T11:19:32;99236.38;;;13.93;47.83
34674;BME280;20879;55.668;37.858;2022-09-01T11:22:19;99240.63;;;14.19;46.86
34674;BME280;20879;55.668;37.858;2022-09-01T11:28:36;99238.66;;;14.24;46.61
34674;BME280;20879;55.668;37.858;2022-09-01T11:31:28;99227.88;;;14.11;45.89
34674;BME280;20879;55.668;37.858;2022-09-01T11:34:08;99215.69;;;13.90;46.99
34674;BME280;20879;55.668;37.858;2022-09-01T11:36:49;99228.19;;;13.55;47.05
34674;BME280;20879;55.668;37.858;2022-09-01T11:39:35;99236.63;;;13.61;47.60
34674;BME280;20879;55.668;37.858;2022-09-01T11:42:10;99195.16;;;13.32;47.07
34674;BME280;20879;55.668;37.858;2022-09-01T11:44:47;99224.84;;;13.51;47.53
34674;BME280;20879;55.668;37.858;2022-09-01T11:47:25;99242.19;;;13.76;46.99
34674;BME280;20879;55.668;37.858;2022-09-01T11:49:58;99216.56;;;14.12;46.26
34674;BME280;20879;55.668;37.858;2022-09-01T11:52:37;99226.91;;;14.14;45.96
34674;BME280;20879;55.668;37.858;2022-09-01T11:55:08;99221.19;;;14.28;45.97
34674;BME280;20879;55.668;37.858;2022-09-01T11:57:43;99218.53;;;14.29;45.54
34674;BME280;20879;55.668;37.858;2022-09-01T12:00:26;99215.44;;;14.42;45.30
34674;BME280;20879;55.668;37.858;2022-09-01T12:02:56;99195.22;;;14.26;45.23
34674;BME280;20879;55.668;37.858;2022-09-01T12:05:36;99214.47;;;13.98;46.14
34674;BME280;20879;55.668;37.858;2022-09-01T12:08:12;99219.63;;;14.00;46.42
34674;BME280;20879;55.668;37.858;2022-09-01T12:10:44;99216.28;;;13.96;46.74
34674;BME280;20879;55.668;37.858;2022-09-01T12:13:20;99222.16;;;14.25;46.52
34674;BME280;20879;55.668;37.858;2022-09-01T12:15:55;99208.69;;;14.60;45.82
34674;BME280;20879;55.668;37.858;2022-09-01T12:18:32;99195.88;;;14.54;46.19
34674;BME280;20879;55.668;37.858;2022-09-01T12:21:06;99209.63;;;14.57;45.81
34674;BME280;20879;55.668;37.858;2022-09-01T12:23:41;99214.34;;;14.47;46.17
34674;BME280;20879;55.668;37.858;2022-09-01T12:26:13;99210.22;;;14.42;46.07
34674;BME280;20879;55.668;37.858;2022-09-01T12:28:49;99199.38;;;14.30;46.77
34674;BME280;20879;55.668;37.858;2022-09-01T12:31:27;99190.81;;;14.05;46.88
34674;BME280;20879;55.668;37.858;2022-09-01T12:36:43;99193.69;;;14.21;46.88
34674;BME280;20879;55.668;37.858;2022-09-01T12:39:37;99184.84;;;14.25;46.26
34674;BME280;20879;55.668;37.858;2022-09-01T12:42:10;99211.09;;;14.19;46.56
34674;BME280;20879;55.668;37.858;2022-09-01T12:44:49;99201.94;;;14.32;46.60
34674;BME280;20879;55.668;37.858;2022-09-01T12:47:46;99183.94;;;14.48;46.63
34674;BME280;20879;55.668;37.858;2022-09-01T12:57:29;99196.75;;;14.30;45.82
34674;BME280;20879;55.668;37.858;2022-09-01T13:00:07;99178.69;;;14.04;45.87
34674;BME280;20879;55.668;37.858;2022-09-01T13:02:38;99184.22;;;13.96;46.30
34674;BME280;20879;55.668;37.858;2022-09-01T13:05:20;99192.72;;;13.99;46.50
34674;BME280;20879;55.668;37.858;2022-09-01T13:08:06;99190.28;;;14.19;45.95
34674;BME280;20879;55.668;37.858;2022-09-01T13:10:37;99184.97;;;14.22;46.00
34674;BME280;20879;55.668;37.858;2022-09-01T13:13:12;99187.09;;;14.34;45.87
34674;BME280;20879;55.668;37.858;2022-09-01T13:15:50;99183.41;;;14.40;45.74
34674;BME280;20879;55.668;37.858;2022-09-01T13:18:26;99174.84;;;14.14;46.08
34674;BME280;20879;55.668;37.858;2022-09-01T13:21:26;99179.53;;;14.28;46.04
34674;BME280;20879;55.668;37.858;2022-09-01T13:23:55;99186.97;;;14.37;46.21
34674;BME280;20879;55.668;37.858;2022-09-01T13:26:25;99183.84;;;14.51;45.85
34674;BME280;20879;55.668;37.858;2022-09-01T13:28:59;99177.56;;;14.55;45.29
34674;BME280;20879;55.668;37.858;2022-09-01T13:31:28;99174.44;;;14.47;45.56
34674;BME280;20879;55.668;37.858;2022-09-01T13:33:59;99178.84;;;14.45;45.70
34674;BME280;20879;55.668;37.858;2022-09-01T13:36:34;99151.97;;;14.44;45.02
34674;BME280;20879;55.668;37.858;2022-09-01T13:39:16;99164.69;;;14.30;45.29
34674;BME280;20879;55.668;37.858;2022-09-01T13:41:46;99179.72;;;14.23;45.90
34674;BME280;20879;55.668;37.858;2022-09-01T13:44:18;99174.59;;;14.20;46.10
34674;BME280;20879;55.668;37.858;2022-09-01T13:46:47;99168.78;;;14.13;46.32
34674;BME280;20879;55.668;37.858;2022-09-01T13:49:36;99179.81;;;14.20;46.64
34674;BME280;20879;55.668;37.858;2022-09-01T13:52:26;99181.75;;;14.15;46.80
34674;BME280;20879;55.668;37.858;2022-09-01T13:54:55;99171.22;;;14.18;46.98
34674;BME280;20879;55.668;37.858;2022-09-01T13:57:24;99158.81;;;14.25;46.83
34674;BME280;20879;55.668;37.858;2022-09-01T14:00:06;99170.72;;;14.30;47.50
34674;BME280;20879;55.668;37.858;2022-09-01T14:02:37;99148.34;;;14.26;47.69